sensor_id;sensor_type;location;lat;lon;timestamp;pressure;altitude;pressure_sealevel;temperature;humidity
60646;BME280;46462;32.608;-117.032;2024-02-23T00:00:08;99876.65;;;19.98;55.65
60646;BME280;46462;32.608;-117.032;2024-02-23T00:02:38;99857.46;;;19.93;55.69
60646;BME280;46462;32.608;-117.032;2024-02-23T00:05:09;99867.91;;;19.84;55.82
60646;BME280;46462;32.608;-117.032;2024-02-23T00:07:40;99887.53;;;19.71;56.35
60646;BME280;46462;32.608;-117.032;2024-02-23T00:10:10;99880.76;;;19.78;56.33
60646;BME280;46462;32.608;-117.032;2024-02-23T00:12:42;99877.22;;;19.93;56.16
60646;BME280;46462;32.608;-117.032;2024-02-23T00:15:12;99875.21;;;19.83;56.17
60646;BME280;46462;32.608;-117.032;2024-02-23T00:17:43;99872.66;;;19.79;56.27
60646;BME280;46462;32.608;-117.032;2024-02-23T00:20:13;99873.09;;;19.73;56.50
60646;BME280;46462;32.608;-117.032;2024-02-23T00:22:44;99873.06;;;19.73;56.66
60646;BME280;46462;32.608;-117.032;2024-02-23T00:25:15;99873.14;;;19.74;56.68
60646;BME280;46462;32.608;-117.032;2024-02-23T00:27:45;99868.97;;;19.54;57.31
60646;BME280;46462;32.608;-117.032;2024-02-23T00:30:16;99868.31;;;19.58;57.25
60646;BME280;46462;32.608;-117.032;2024-02-23T00:32:47;99854.46;;;21.54;52.03
60646;BME280;46462;32.608;-117.032;2024-02-23T00:35:17;99860.58;;;22.70;49.12
60646;BME280;46462;32.608;-117.032;2024-02-23T00:37:48;99865.02;;;23.30;47.90
60646;BME280;46462;32.608;-117.032;2024-02-23T00:40:19;99868.46;;;23.68;46.91
60646;BME280;46462;32.608;-117.032;2024-02-23T00:42:49;99867.99;;;23.96;46.54
60646;BME280;46462;32.608;-117.032;2024-02-23T00:45:20;99873.32;;;24.14;46.03
60646;BME280;46462;32.608;-117.032;2024-02-23T00:47:51;99882.32;;;24.31;45.80
60646;BME280;46462;32.608;-117.032;2024-02-23T00:50:21;99883.60;;;24.32;45.79
60646;BME280;46462;32.608;-117.032;2024-02-23T00:52:52;99881.54;;;24.45;45.61
60646;BME280;46462;32.608;-117.032;2024-02-23T00:55:23;99880.72;;;24.52;45.36
60646;BME280;46462;32.608;-117.032;2024-02-23T00:57:54;99882.84;;;24.45;45.47
60646;BME280;46462;32.608;-117.032;2024-02-23T01:00:24;99877.46;;;24.61;45.20
60646;BME280;46462;32.608;-117.032;2024-02-23T01:02:55;99877.42;;;24.68;45.05
60646;BME280;46462;32.608;-117.032;2024-02-23T01:05:26;99876.66;;;24.70;45.06
60646;BME280;46462;32.608;-117.032;2024-02-23T01:07:57;99875.55;;;24.77;44.90
60646;BME280;46462;32.608;-117.032;2024-02-23T01:10:27;99876.08;;;24.78;44.99
60646;BME280;46462;32.608;-117.032;2024-02-23T01:12:58;99880.73;;;24.77;45.00
60646;BME280;46462;32.608;-117.032;2024-02-23T01:15:28;99890.85;;;24.75;45.12
60646;BME280;46462;32.608;-117.032;2024-02-23T01:17:59;99898.55;;;24.72;45.30
60646;BME280;46462;32.608;-117.032;2024-02-23T01:20:30;99899.57;;;24.74;45.26
60646;BME280;46462;32.608;-117.032;2024-02-23T01:23:01;99902.06;;;24.75;45.28
60646;BME280;46462;32.608;-117.032;2024-02-23T01:25:31;99901.99;;;24.74;45.23
60646;BME280;46462;32.608;-117.032;2024-02-23T01:28:02;99908.68;;;24.72;45.26
60646;BME280;46462;32.608;-117.032;2024-02-23T01:30:33;99917.00;;;24.75;45.19
60646;BME280;46462;32.608;-117.032;2024-02-23T01:33:03;99911.39;;;24.78;45.10
60646;BME280;46462;32.608;-117.032;2024-02-23T01:35:34;99909.73;;;24.77;45.18
60646;BME280;46462;32.608;-117.032;2024-02-23T01:38:05;99907.00;;;24.80;45.03
60646;BME280;46462;32.608;-117.032;2024-02-23T01:40:35;99900.21;;;24.78;45.11
60646;BME280;46462;32.608;-117.032;2024-02-23T01:43:06;99903.70;;;24.78;45.04
60646;BME280;46462;32.608;-117.032;2024-02-23T01:45:37;99902.38;;;24.79;45.01
60646;BME280;46462;32.608;-117.032;2024-02-23T01:48:08;99903.31;;;24.81;44.98
60646;BME280;46462;32.608;-117.032;2024-02-23T01:50:38;99907.35;;;24.79;44.98
60646;BME280;46462;32.608;-117.032;2024-02-23T01:53:10;99907.65;;;24.83;44.90
60646;BME280;46462;32.608;-117.032;2024-02-23T01:55:41;99908.22;;;24.86;44.84
60646;BME280;46462;32.608;-117.032;2024-02-23T01:58:10;99906.39;;;24.91;44.67
60646;BME280;46462;32.608;-117.032;2024-02-23T02:00:41;99902.22;;;24.91;44.64
60646;BME280;46462;32.608;-117.032;2024-02-23T02:03:11;99899.02;;;24.92;44.54
60646;BME280;46462;32.608;-117.032;2024-02-23T02:05:42;99897.45;;;24.91;44.50
60646;BME280;46462;32.608;-117.032;2024-02-23T02:08:13;99902.77;;;24.92;44.48
60646;BME280;46462;32.608;-117.032;2024-02-23T02:10:44;99907.72;;;24.90;44.41
60646;BME280;46462;32.608;-117.032;2024-02-23T02:13:14;99905.47;;;24.90;44.43
60646;BME280;46462;32.608;-117.032;2024-02-23T02:15:45;99908.72;;;24.88;44.42
60646;BME280;46462;32.608;-117.032;2024-02-23T02:18:16;99922.42;;;24.87;44.42
60646;BME280;46462;32.608;-117.032;2024-02-23T02:20:52;99930.39;;;24.85;44.41
60646;BME280;46462;32.608;-117.032;2024-02-23T02:23:17;99932.55;;;24.84;44.40
60646;BME280;46462;32.608;-117.032;2024-02-23T02:25:53;99938.22;;;24.85;44.30
60646;BME280;46462;32.608;-117.032;2024-02-23T02:28:18;99945.98;;;24.85;44.30
60646;BME280;46462;32.608;-117.032;2024-02-23T02:30:49;99948.27;;;24.82;44.42
60646;BME280;46462;32.608;-117.032;2024-02-23T02:33:20;99949.78;;;24.82;44.36
60646;BME280;46462;32.608;-117.032;2024-02-23T02:35:51;99955.16;;;24.80;44.39
60646;BME280;46462;32.608;-117.032;2024-02-23T02:38:21;99964.91;;;24.78;44.37
60646;BME280;46462;32.608;-117.032;2024-02-23T02:40:52;99970.31;;;24.76;44.45
60646;BME280;46462;32.608;-117.032;2024-02-23T02:43:23;99977.06;;;24.75;44.43
60646;BME280;46462;32.608;-117.032;2024-02-23T02:45:53;99983.08;;;24.74;44.43
60646;BME280;46462;32.608;-117.032;2024-02-23T02:48:24;99981.33;;;24.74;44.34
60646;BME280;46462;32.608;-117.032;2024-02-23T02:50:55;99978.91;;;24.72;44.42
60646;BME280;46462;32.608;-117.032;2024-02-23T02:53:26;99982.83;;;24.71;44.46
60646;BME280;46462;32.608;-117.032;2024-02-23T02:55:56;99989.53;;;24.70;44.48
60646;BME280;46462;32.608;-117.032;2024-02-23T02:58:27;99993.36;;;24.67;44.51
60646;BME280;46462;32.608;-117.032;2024-02-23T03:00:57;99994.79;;;24.66;44.55
60646;BME280;46462;32.608;-117.032;2024-02-23T03:03:28;99992.26;;;24.67;44.37
60646;BME280;46462;32.608;-117.032;2024-02-23T03:05:59;99988.84;;;24.67;44.39
60646;BME280;46462;32.608;-117.032;2024-02-23T03:08:30;99989.15;;;24.64;44.35
60646;BME280;46462;32.608;-117.032;2024-02-23T03:11:00;99992.13;;;24.62;44.45
60646;BME280;46462;32.608;-117.032;2024-02-23T03:13:31;99997.77;;;24.56;44.62
60646;BME280;46462;32.608;-117.032;2024-02-23T03:16:02;100004.29;;;24.54;44.67
60646;BME280;46462;32.608;-117.032;2024-02-23T03:18:32;100006.70;;;24.55;44.62
60646;BME280;46462;32.608;-117.032;2024-02-23T03:21:03;100011.42;;;24.52;44.65
60646;BME280;46462;32.608;-117.032;2024-02-23T03:23:34;100009.61;;;24.48;44.73
60646;BME280;46462;32.608;-117.032;2024-02-23T03:26:06;100011.50;;;24.50;44.65
60646;BME280;46462;32.608;-117.032;2024-02-23T03:28:35;100011.39;;;24.46;44.67
60646;BME280;46462;32.608;-117.032;2024-02-23T03:31:06;100009.25;;;24.45;44.71
60646;BME280;46462;32.608;-117.032;2024-02-23T03:33:36;100003.71;;;24.45;44.69
60646;BME280;46462;32.608;-117.032;2024-02-23T03:36:08;100002.51;;;24.42;44.76
60646;BME280;46462;32.608;-117.032;2024-02-23T03:38:38;100006.62;;;24.40;44.81
60646;BME280;46462;32.608;-117.032;2024-02-23T03:41:09;100015.86;;;24.38;44.86
60646;BME280;46462;32.608;-117.032;2024-02-23T03:43:39;100024.68;;;24.35;44.85
60646;BME280;46462;32.608;-117.032;2024-02-23T03:46:11;100026.89;;;24.31;44.96
60646;BME280;46462;32.608;-117.032;2024-02-23T03:48:41;100022.17;;;24.31;44.89
60646;BME280;46462;32.608;-117.032;2024-02-23T03:51:11;100014.09;;;24.30;44.90
60646;BME280;46462;32.608;-117.032;2024-02-23T03:53:42;100006.29;;;24.30;44.95
60646;BME280;46462;32.608;-117.032;2024-02-23T03:56:13;100001.07;;;24.29;44.86
60646;BME280;46462;32.608;-117.032;2024-02-23T03:58:44;99998.16;;;24.32;44.78
60646;BME280;46462;32.608;-117.032;2024-02-23T04:01:14;99990.16;;;24.37;44.67
60646;BME280;46462;32.608;-117.032;2024-02-23T04:03:45;99985.79;;;24.39;44.61
60646;BME280;46462;32.608;-117.032;2024-02-23T04:06:16;99984.95;;;24.37;44.66
60646;BME280;46462;32.608;-117.032;2024-02-23T04:08:46;99987.58;;;24.36;44.63
60646;BME280;46462;32.608;-117.032;2024-02-23T04:11:17;99988.41;;;24.33;44.65
60646;BME280;46462;32.608;-117.032;2024-02-23T04:13:48;99997.42;;;24.29;44.74
60646;BME280;46462;32.608;-117.032;2024-02-23T04:16:22;100004.46;;;24.27;44.71
60646;BME280;46462;32.608;-117.032;2024-02-23T04:18:49;100009.36;;;24.29;44.78
60646;BME280;46462;32.608;-117.032;2024-02-23T04:21:20;100012.97;;;24.26;44.69
60646;BME280;46462;32.608;-117.032;2024-02-23T04:23:51;100022.91;;;24.23;44.81
60646;BME280;46462;32.608;-117.032;2024-02-23T04:26:21;100026.33;;;24.22;44.76
60646;BME280;46462;32.608;-117.032;2024-02-23T04:28:52;100026.51;;;24.20;44.77
60646;BME280;46462;32.608;-117.032;2024-02-23T04:31:23;100027.42;;;24.20;44.77
60646;BME280;46462;32.608;-117.032;2024-02-23T04:33:54;100030.14;;;24.18;44.82
60646;BME280;46462;32.608;-117.032;2024-02-23T04:36:24;100026.72;;;24.18;44.85
60646;BME280;46462;32.608;-117.032;2024-02-23T04:38:55;100029.51;;;24.22;44.76
60646;BME280;46462;32.608;-117.032;2024-02-23T04:41:26;100037.74;;;24.16;44.93
60646;BME280;46462;32.608;-117.032;2024-02-23T04:43:56;100040.26;;;24.17;44.88
60646;BME280;46462;32.608;-117.032;2024-02-23T04:46:27;100050.62;;;24.14;44.74
60646;BME280;46462;32.608;-117.032;2024-02-23T04:48:58;100052.92;;;24.10;44.89
60646;BME280;46462;32.608;-117.032;2024-02-23T04:51:29;100054.53;;;24.09;45.05
60646;BME280;46462;32.608;-117.032;2024-02-23T04:53:59;100057.92;;;24.11;44.96
60646;BME280;46462;32.608;-117.032;2024-02-23T04:56:30;100065.36;;;24.10;44.94
60646;BME280;46462;32.608;-117.032;2024-02-23T04:59:01;100069.40;;;24.06;45.06
60646;BME280;46462;32.608;-117.032;2024-02-23T05:01:36;100067.82;;;24.03;45.07
60646;BME280;46462;32.608;-117.032;2024-02-23T05:04:02;100067.97;;;24.00;45.16
60646;BME280;46462;32.608;-117.032;2024-02-23T05:06:33;100064.15;;;24.00;45.12
60646;BME280;46462;32.608;-117.032;2024-02-23T05:09:03;100054.24;;;24.00;45.15
60646;BME280;46462;32.608;-117.032;2024-02-23T05:11:34;100048.63;;;23.92;45.14
60646;BME280;46462;32.608;-117.032;2024-02-23T05:14:05;100046.13;;;23.89;45.14
60646;BME280;46462;32.608;-117.032;2024-02-23T05:16:36;100040.05;;;23.87;45.27
60646;BME280;46462;32.608;-117.032;2024-02-23T05:19:06;100035.11;;;23.84;45.45
60646;BME280;46462;32.608;-117.032;2024-02-23T05:21:37;100037.53;;;23.83;45.35
60646;BME280;46462;32.608;-117.032;2024-02-23T05:24:08;100044.42;;;23.81;45.31
60646;BME280;46462;32.608;-117.032;2024-02-23T05:26:38;100045.47;;;23.80;45.34
60646;BME280;46462;32.608;-117.032;2024-02-23T05:29:09;100040.59;;;23.75;45.35
60646;BME280;46462;32.608;-117.032;2024-02-23T05:31:44;100036.57;;;23.73;45.57
60646;BME280;46462;32.608;-117.032;2024-02-23T05:34:10;100034.90;;;23.71;45.56
60646;BME280;46462;32.608;-117.032;2024-02-23T05:36:42;100031.61;;;23.68;45.43
60646;BME280;46462;32.608;-117.032;2024-02-23T05:39:12;100027.25;;;23.67;45.49
60646;BME280;46462;32.608;-117.032;2024-02-23T05:41:43;100031.73;;;23.62;45.46
60646;BME280;46462;32.608;-117.032;2024-02-23T05:44:13;100033.35;;;23.62;45.60
60646;BME280;46462;32.608;-117.032;2024-02-23T05:46:44;100029.45;;;23.61;45.47
60646;BME280;46462;32.608;-117.032;2024-02-23T05:49:15;100029.03;;;23.58;45.63
60646;BME280;46462;32.608;-117.032;2024-02-23T05:51:45;100027.99;;;23.54;45.72
60646;BME280;46462;32.608;-117.032;2024-02-23T05:54:16;100028.99;;;23.51;45.59
60646;BME280;46462;32.608;-117.032;2024-02-23T05:56:47;100022.03;;;23.50;45.88
60646;BME280;46462;32.608;-117.032;2024-02-23T05:59:18;100017.90;;;23.57;45.69
60646;BME280;46462;32.608;-117.032;2024-02-23T06:01:48;100010.87;;;23.57;45.79
60646;BME280;46462;32.608;-117.032;2024-02-23T06:04:19;100007.49;;;23.53;45.54
60646;BME280;46462;32.608;-117.032;2024-02-23T06:06:50;100006.07;;;23.48;45.64
60646;BME280;46462;32.608;-117.032;2024-02-23T06:09:21;100010.44;;;23.47;45.53
60646;BME280;46462;32.608;-117.032;2024-02-23T06:11:51;100013.04;;;23.47;45.63
60646;BME280;46462;32.608;-117.032;2024-02-23T06:14:22;100013.87;;;23.46;45.60
60646;BME280;46462;32.608;-117.032;2024-02-23T06:16:53;100016.39;;;23.44;45.83
60646;BME280;46462;32.608;-117.032;2024-02-23T06:19:24;100015.75;;;23.38;45.95
60646;BME280;46462;32.608;-117.032;2024-02-23T06:21:54;100010.01;;;23.40;45.88
60646;BME280;46462;32.608;-117.032;2024-02-23T06:24:25;100009.15;;;23.28;46.21
60646;BME280;46462;32.608;-117.032;2024-02-23T06:26:56;100009.32;;;23.27;46.36
60646;BME280;46462;32.608;-117.032;2024-02-23T06:29:27;100009.08;;;23.26;46.15
60646;BME280;46462;32.608;-117.032;2024-02-23T06:31:57;100004.57;;;23.27;46.01
60646;BME280;46462;32.608;-117.032;2024-02-23T06:34:28;99998.64;;;23.18;46.43
60646;BME280;46462;32.608;-117.032;2024-02-23T06:36:59;99994.36;;;23.21;46.10
60646;BME280;46462;32.608;-117.032;2024-02-23T06:39:29;99989.80;;;23.10;46.53
60646;BME280;46462;32.608;-117.032;2024-02-23T06:42:00;99986.88;;;23.06;46.54
60646;BME280;46462;32.608;-117.032;2024-02-23T06:44:31;99983.08;;;23.01;46.78
60646;BME280;46462;32.608;-117.032;2024-02-23T06:47:01;99980.21;;;23.01;46.75
60646;BME280;46462;32.608;-117.032;2024-02-23T06:49:32;99980.29;;;22.89;46.95
60646;BME280;46462;32.608;-117.032;2024-02-23T06:52:03;99979.79;;;22.90;46.43
60646;BME280;46462;32.608;-117.032;2024-02-23T06:54:34;99980.38;;;22.94;46.64
60646;BME280;46462;32.608;-117.032;2024-02-23T06:57:05;99978.81;;;22.88;46.65
60646;BME280;46462;32.608;-117.032;2024-02-23T06:59:35;99979.05;;;22.91;46.63
60646;BME280;46462;32.608;-117.032;2024-02-23T07:02:06;99979.11;;;22.87;46.67
60646;BME280;46462;32.608;-117.032;2024-02-23T07:04:37;99976.60;;;22.85;46.63
60646;BME280;46462;32.608;-117.032;2024-02-23T07:07:07;99976.87;;;22.86;46.57
60646;BME280;46462;32.608;-117.032;2024-02-23T07:09:38;99975.71;;;22.80;46.87
60646;BME280;46462;32.608;-117.032;2024-02-23T07:12:09;99971.30;;;22.83;46.76
60646;BME280;46462;32.608;-117.032;2024-02-23T07:14:39;99966.63;;;22.79;46.46
60646;BME280;46462;32.608;-117.032;2024-02-23T07:17:10;99960.24;;;22.70;46.94
60646;BME280;46462;32.608;-117.032;2024-02-23T07:19:42;99958.97;;;22.66;47.04
60646;BME280;46462;32.608;-117.032;2024-02-23T07:22:12;99952.61;;;22.68;46.60
60646;BME280;46462;32.608;-117.032;2024-02-23T07:24:43;99946.98;;;22.54;47.18
60646;BME280;46462;32.608;-117.032;2024-02-23T07:27:13;99945.11;;;22.58;47.04
60646;BME280;46462;32.608;-117.032;2024-02-23T07:29:44;99945.45;;;22.59;46.89
60646;BME280;46462;32.608;-117.032;2024-02-23T07:32:15;99942.84;;;22.61;46.67
60646;BME280;46462;32.608;-117.032;2024-02-23T07:34:45;99940.92;;;22.72;46.50
60646;BME280;46462;32.608;-117.032;2024-02-23T07:37:16;99934.76;;;22.69;46.22
60646;BME280;46462;32.608;-117.032;2024-02-23T07:39:47;99932.43;;;22.62;46.58
60646;BME280;46462;32.608;-117.032;2024-02-23T07:42:17;99926.48;;;22.49;46.89
60646;BME280;46462;32.608;-117.032;2024-02-23T07:44:48;99920.00;;;22.46;46.86
60646;BME280;46462;32.608;-117.032;2024-02-23T07:47:19;99918.09;;;22.45;46.99
60646;BME280;46462;32.608;-117.032;2024-02-23T07:49:50;99913.78;;;22.46;46.83
60646;BME280;46462;32.608;-117.032;2024-02-23T07:52:21;99911.48;;;22.64;46.67
60646;BME280;46462;32.608;-117.032;2024-02-23T07:54:52;99907.58;;;22.55;46.55
60646;BME280;46462;32.608;-117.032;2024-02-23T07:57:23;99904.34;;;22.60;46.12
60646;BME280;46462;32.608;-117.032;2024-02-23T07:59:53;99894.60;;;22.61;46.28
60646;BME280;46462;32.608;-117.032;2024-02-23T08:02:23;99888.82;;;22.77;46.02
60646;BME280;46462;32.608;-117.032;2024-02-23T08:04:54;99885.25;;;22.70;46.08
60646;BME280;46462;32.608;-117.032;2024-02-23T08:07:25;99879.26;;;22.74;45.87
60646;BME280;46462;32.608;-117.032;2024-02-23T08:09:56;99868.65;;;22.64;45.98
60646;BME280;46462;32.608;-117.032;2024-02-23T08:12:27;99859.71;;;22.74;45.97
60646;BME280;46462;32.608;-117.032;2024-02-23T08:14:57;99857.86;;;22.65;46.08
60646;BME280;46462;32.608;-117.032;2024-02-23T08:17:28;99858.22;;;22.75;45.84
60646;BME280;46462;32.608;-117.032;2024-02-23T08:19:59;99855.51;;;22.61;46.10
60646;BME280;46462;32.608;-117.032;2024-02-23T08:22:29;99853.05;;;22.64;45.82
60646;BME280;46462;32.608;-117.032;2024-02-23T08:25:00;99850.87;;;22.62;45.93
60646;BME280;46462;32.608;-117.032;2024-02-23T08:27:31;99842.99;;;22.61;45.94
60646;BME280;46462;32.608;-117.032;2024-02-23T08:30:02;99837.97;;;22.39;46.40
60646;BME280;46462;32.608;-117.032;2024-02-23T08:32:32;99835.48;;;22.36;46.68
60646;BME280;46462;32.608;-117.032;2024-02-23T08:35:07;99835.47;;;22.61;45.87
60646;BME280;46462;32.608;-117.032;2024-02-23T08:37:38;99834.71;;;22.61;45.91
60646;BME280;46462;32.608;-117.032;2024-02-23T08:40:08;99836.36;;;22.49;46.01
60646;BME280;46462;32.608;-117.032;2024-02-23T08:42:38;99841.20;;;22.41;46.14
60646;BME280;46462;32.608;-117.032;2024-02-23T08:45:09;99838.48;;;22.44;45.92
60646;BME280;46462;32.608;-117.032;2024-02-23T08:47:41;99839.04;;;22.52;45.79
60646;BME280;46462;32.608;-117.032;2024-02-23T08:50:10;99836.16;;;22.43;46.15
60646;BME280;46462;32.608;-117.032;2024-02-23T08:52:41;99830.86;;;22.58;45.50
60646;BME280;46462;32.608;-117.032;2024-02-23T08:55:11;99823.06;;;22.42;46.01
60646;BME280;46462;32.608;-117.032;2024-02-23T08:57:42;99816.02;;;22.30;46.16
60646;BME280;46462;32.608;-117.032;2024-02-23T09:00:14;99813.60;;;22.35;46.07
60646;BME280;46462;32.608;-117.032;2024-02-23T09:02:44;99809.47;;;22.46;45.89
60646;BME280;46462;32.608;-117.032;2024-02-23T09:05:15;99809.37;;;22.31;46.34
60646;BME280;46462;32.608;-117.032;2024-02-23T09:07:45;99811.47;;;22.30;46.02
60646;BME280;46462;32.608;-117.032;2024-02-23T09:10:16;99810.38;;;22.24;46.09
60646;BME280;46462;32.608;-117.032;2024-02-23T09:12:47;99809.70;;;22.11;46.25
60646;BME280;46462;32.608;-117.032;2024-02-23T09:15:18;99809.29;;;22.09;46.54
60646;BME280;46462;32.608;-117.032;2024-02-23T09:17:48;99810.71;;;22.38;45.76
60646;BME280;46462;32.608;-117.032;2024-02-23T09:20:19;99807.97;;;22.40;45.64
60646;BME280;46462;32.608;-117.032;2024-02-23T09:22:50;99806.70;;;22.37;45.19
60646;BME280;46462;32.608;-117.032;2024-02-23T09:25:20;99803.66;;;22.07;46.46
60646;BME280;46462;32.608;-117.032;2024-02-23T09:27:51;99804.47;;;22.04;46.44
60646;BME280;46462;32.608;-117.032;2024-02-23T09:30:22;99801.59;;;22.12;46.10
60646;BME280;46462;32.608;-117.032;2024-02-23T09:32:53;99801.66;;;22.15;45.76
60646;BME280;46462;32.608;-117.032;2024-02-23T09:35:23;99803.97;;;22.06;46.20
60646;BME280;46462;32.608;-117.032;2024-02-23T09:37:54;99804.12;;;22.00;46.56
60646;BME280;46462;32.608;-117.032;2024-02-23T09:40:25;99798.59;;;22.08;46.29
60646;BME280;46462;32.608;-117.032;2024-02-23T09:42:57;99800.21;;;22.12;46.10
60646;BME280;46462;32.608;-117.032;2024-02-23T09:45:27;99797.16;;;22.13;46.20
60646;BME280;46462;32.608;-117.032;2024-02-23T09:47:58;99793.80;;;21.98;46.23
60646;BME280;46462;32.608;-117.032;2024-02-23T09:50:29;99787.06;;;22.03;46.14
60646;BME280;46462;32.608;-117.032;2024-02-23T09:52:59;99784.15;;;22.11;45.91
60646;BME280;46462;32.608;-117.032;2024-02-23T09:55:29;99780.47;;;22.07;45.68
60646;BME280;46462;32.608;-117.032;2024-02-23T09:58:01;99769.10;;;22.12;45.55
60646;BME280;46462;32.608;-117.032;2024-02-23T10:00:31;99765.12;;;22.07;45.93
60646;BME280;46462;32.608;-117.032;2024-02-23T10:03:02;99761.69;;;21.94;46.24
60646;BME280;46462;32.608;-117.032;2024-02-23T10:05:32;99762.21;;;21.97;46.25
60646;BME280;46462;32.608;-117.032;2024-02-23T10:08:04;99759.84;;;22.01;45.86
60646;BME280;46462;32.608;-117.032;2024-02-23T10:10:34;99757.88;;;22.01;45.73
60646;BME280;46462;32.608;-117.032;2024-02-23T10:13:05;99752.30;;;21.75;46.24
60646;BME280;46462;32.608;-117.032;2024-02-23T10:15:36;99750.95;;;21.56;46.90
60646;BME280;46462;32.608;-117.032;2024-02-23T10:18:07;99751.02;;;21.71;46.55
60646;BME280;46462;32.608;-117.032;2024-02-23T10:20:37;99747.37;;;21.59;46.90
60646;BME280;46462;32.608;-117.032;2024-02-23T10:23:08;99749.82;;;21.87;45.86
60646;BME280;46462;32.608;-117.032;2024-02-23T10:25:39;99751.21;;;21.69;46.40
60646;BME280;46462;32.608;-117.032;2024-02-23T10:28:09;99754.88;;;21.73;46.33
60646;BME280;46462;32.608;-117.032;2024-02-23T10:30:40;99751.38;;;21.56;46.19
60646;BME280;46462;32.608;-117.032;2024-02-23T10:33:12;99752.88;;;21.78;45.99
60646;BME280;46462;32.608;-117.032;2024-02-23T10:35:43;99751.79;;;21.60;46.53
60646;BME280;46462;32.608;-117.032;2024-02-23T10:38:14;99751.62;;;21.66;46.29
60646;BME280;46462;32.608;-117.032;2024-02-23T10:40:44;99750.88;;;21.81;46.12
60646;BME280;46462;32.608;-117.032;2024-02-23T10:43:19;99748.84;;;21.90;45.65
60646;BME280;46462;32.608;-117.032;2024-02-23T10:45:46;99746.72;;;21.89;45.32
60646;BME280;46462;32.608;-117.032;2024-02-23T10:48:16;99745.40;;;21.72;46.16
60646;BME280;46462;32.608;-117.032;2024-02-23T10:50:46;99742.14;;;21.58;46.34
60646;BME280;46462;32.608;-117.032;2024-02-23T10:53:17;99738.36;;;21.78;45.95
60646;BME280;46462;32.608;-117.032;2024-02-23T10:55:50;99733.69;;;21.74;45.83
60646;BME280;46462;32.608;-117.032;2024-02-23T10:58:19;99727.71;;;21.79;45.66
60646;BME280;46462;32.608;-117.032;2024-02-23T11:00:50;99724.24;;;21.98;45.26
60646;BME280;46462;32.608;-117.032;2024-02-23T11:03:20;99720.96;;;21.72;46.01
60646;BME280;46462;32.608;-117.032;2024-02-23T11:05:51;99717.74;;;22.02;45.29
60646;BME280;46462;32.608;-117.032;2024-02-23T11:08:22;99717.47;;;21.75;45.79
60646;BME280;46462;32.608;-117.032;2024-02-23T11:10:53;99712.96;;;21.50;46.64
60646;BME280;46462;32.608;-117.032;2024-02-23T11:13:31;99712.13;;;21.87;45.49
60646;BME280;46462;32.608;-117.032;2024-02-23T11:16:01;99706.14;;;21.60;45.77
60646;BME280;46462;32.608;-117.032;2024-02-23T11:18:29;99704.27;;;21.33;46.52
60646;BME280;46462;32.608;-117.032;2024-02-23T11:20:58;99697.78;;;21.27;46.83
60646;BME280;46462;32.608;-117.032;2024-02-23T11:23:26;99697.90;;;21.34;46.60
60646;BME280;46462;32.608;-117.032;2024-02-23T11:26:05;99697.66;;;21.15;47.18
60646;BME280;46462;32.608;-117.032;2024-02-23T11:28:28;99702.36;;;21.23;46.74
60646;BME280;46462;32.608;-117.032;2024-02-23T11:30:59;99701.61;;;21.14;46.99
60646;BME280;46462;32.608;-117.032;2024-02-23T11:33:29;99698.70;;;21.17;46.83
60646;BME280;46462;32.608;-117.032;2024-02-23T11:36:06;99692.97;;;21.01;47.24
60646;BME280;46462;32.608;-117.032;2024-02-23T11:38:33;99687.00;;;21.22;46.84
60646;BME280;46462;32.608;-117.032;2024-02-23T11:41:03;99683.75;;;21.23;46.47
60646;BME280;46462;32.608;-117.032;2024-02-23T11:43:35;99681.55;;;21.20;46.65
60646;BME280;46462;32.608;-117.032;2024-02-23T11:46:04;99674.93;;;21.41;46.00
60646;BME280;46462;32.608;-117.032;2024-02-23T11:48:34;99681.36;;;21.20;46.71
60646;BME280;46462;32.608;-117.032;2024-02-23T11:51:05;99683.37;;;21.01;47.11
60646;BME280;46462;32.608;-117.032;2024-02-23T11:53:37;99682.30;;;20.75;47.49
60646;BME280;46462;32.608;-117.032;2024-02-23T11:56:07;99683.92;;;20.91;47.42
60646;BME280;46462;32.608;-117.032;2024-02-23T11:58:37;99683.36;;;20.98;47.22
60646;BME280;46462;32.608;-117.032;2024-02-23T12:01:08;99679.28;;;20.89;47.47
60646;BME280;46462;32.608;-117.032;2024-02-23T12:03:39;99676.78;;;20.95;47.10
60646;BME280;46462;32.608;-117.032;2024-02-23T12:06:10;99675.69;;;20.89;47.43
60646;BME280;46462;32.608;-117.032;2024-02-23T12:08:40;99678.12;;;20.96;46.65
60646;BME280;46462;32.608;-117.032;2024-02-23T12:11:12;99682.05;;;20.81;47.73
60646;BME280;46462;32.608;-117.032;2024-02-23T12:13:42;99684.34;;;21.16;46.28
60646;BME280;46462;32.608;-117.032;2024-02-23T12:16:14;99685.32;;;21.07;46.89
60646;BME280;46462;32.608;-117.032;2024-02-23T12:18:43;99684.96;;;21.15;46.67
60646;BME280;46462;32.608;-117.032;2024-02-23T12:21:14;99686.54;;;21.28;46.45
60646;BME280;46462;32.608;-117.032;2024-02-23T12:23:48;99683.42;;;21.15;46.58
60646;BME280;46462;32.608;-117.032;2024-02-23T12:26:17;99684.94;;;21.16;46.47
60646;BME280;46462;32.608;-117.032;2024-02-23T12:28:47;99686.08;;;21.28;46.01
60646;BME280;46462;32.608;-117.032;2024-02-23T12:31:25;99689.76;;;21.02;46.74
60646;BME280;46462;32.608;-117.032;2024-02-23T12:33:48;99679.96;;;20.74;47.10
60646;BME280;46462;32.608;-117.032;2024-02-23T12:36:19;99681.71;;;20.89;47.12
60646;BME280;46462;32.608;-117.032;2024-02-23T12:38:50;99680.46;;;20.88;46.86
60646;BME280;46462;32.608;-117.032;2024-02-23T12:41:20;99682.31;;;20.84;47.25
60646;BME280;46462;32.608;-117.032;2024-02-23T12:43:51;99684.30;;;20.88;46.87